Time,TemperatureF,DewpointF,PressureIn,WindDirection,WindDirectionDegrees,WindSpeedMPH,WindSpeedGustMPH,Humidity,HourlyPrecipIn,Conditions,Clouds,dailyrainin,SolarRadiationWatts/m^2,SoftwareType,DateUTC
2013-01-07 00:00:00,11.0,6.9,30.23,WNW,302,0.0,1.0,83,0.00,,SKC,0.01,0.00,VWS V14.01,2013-01-07 07:00:00,
2013-01-07 00:05:00,10.9,6.8,30.20,WNW,302,0.0,0.0,83,0.00,,SKC,0.00,0.00,VWS V14.01,2013-01-07 07:05:00,
2013-01-07 00:12:00,10.8,6.7,30.20,WNW,302,0.0,0.0,83,0.00,,SKC,0.00,0.00,VWS V14.01,2013-01-07 07:12:00,
2013-01-07 00:18:00,10.5,6.4,30.20,WNW,302,0.0,1.0,83,0.00,,SKC,0.00,0.00,VWS V14.01,2013-01-07 07:18:00,
2013-01-07 00:24:00,10.2,6.1,30.22,WNW,302,0.0,1.0,83,0.00,,SKC,0.00,0.00,VWS V14.01,2013-01-07 07:24:00,
2013-01-07 00:30:00,9.9,5.8,30.22,WNW,302,0.0,1.0,83,0.00,,SKC,0.00,0.00,VWS V14.01,2013-01-07 07:30:00,
2013-01-07 00:36:00,9.8,5.7,30.21,WNW,302,0.0,2.0,83,0.00,,SKC,0.00,0.00,VWS V14.01,2013-01-07 07:36:00,
2013-01-07 00:42:00,9.6,5.8,30.21,WNW,302,0.0,2.0,84,0.00,,SKC,0.00,0.00,VWS V14.01,2013-01-07 07:42:00,
2013-01-07 00:48:00,9.6,5.8,30.21,WNW,302,0.0,2.0,84,0.00,,SKC,0.00,0.00,VWS V14.01,2013-01-07 07:48:00,
2013-01-07 00:54:00,9.5,5.7,30.21,WNW,302,1.0,2.0,84,0.00,,SKC,0.00,0.00,VWS V14.01,2013-01-07 07:54:00,
2013-01-07 01:00:00,9.6,6.0,30.21,WNW,302,0.0,2.0,85,0.00,,SKC,0.00,0.00,VWS V14.01,2013-01-07 08:00:00,
2013-01-07 01:05:00,9.6,6.0,30.18,WNW,302,0.0,1.0,85,0.00,,SKC,0.00,0.00,VWS V14.01,2013-01-07 08:05:00,
2013-01-07 01:11:00,9.5,5.9,30.18,WNW,302,0.0,1.0,85,0.00,,SKC,0.00,0.00,VWS V14.01,2013-01-07 08:11:00,
2013-01-07 01:17:00,9.4,5.8,30.20,WNW,302,0.0,1.0,85,0.00,,SKC,0.00,0.00,VWS V14.01,2013-01-07 08:17:00,
2013-01-07 01:23:00,9.2,5.6,30.20,WNW,302,0.0,1.0,85,0.00,,SKC,0.00,0.00,VWS V14.01,2013-01-07 08:23:00,
2013-01-07 01:29:00,9.0,5.4,30.20,WNW,302,0.0,1.0,85,0.00,,SKC,0.00,0.00,VWS V14.01,2013-01-07 08:29:00,
2013-01-07 01:30:00,9.0,5.4,30.20,WNW,302,0.0,1.0,85,0.00,,SKC,0.00,0.00,VWS V14.01,2013-01-07 08:30:00,
2013-01-07 01:35:00,8.8,5.2,30.20,WNW,302,0.0,0.0,85,0.00,,SKC,0.00,0.00,VWS V14.01,2013-01-07 08:35:00,
2013-01-07 01:42:00,8.6,5.0,30.20,WNW,302,0.0,0.0,85,0.00,,SKC,0.00,0.00,VWS V14.01,2013-01-07 08:42:00,
2013-01-07 01:48:00,8.4,4.6,30.20,WNW,302,0.0,0.0,84,0.00,,SKC,0.00,0.00,VWS V14.01,2013-01-07 08:48:00,
2013-01-07 01:54:00,8.1,4.3,30.20,WNW,302,0.0,0.0,84,0.00,,SKC,0.00,0.00,VWS V14.01,2013-01-07 08:54:00,
2013-01-07 02:00:00,7.9,4.1,30.21,WNW,302,0.0,0.0,84,0.00,,SKC,0.00,0.00,VWS V14.01,2013-01-07 09:00:00,
2013-01-07 02:06:00,7.6,3.8,30.22,WNW,302,0.0,0.0,84,0.00,,SKC,0.00,0.00,VWS V14.01,2013-01-07 09:06:00,
2013-01-07 02:12:00,7.3,3.5,30.24,WNW,302,0.0,1.0,84,0.00,,SKC,0.00,0.00,VWS V14.01,2013-01-07 09:12:00,
2013-01-07 02:18:00,7.0,3.2,30.24,WNW,302,0.0,1.0,84,0.00,,SKC,0.00,0.00,VWS V14.01,2013-01-07 09:18:00,
2013-01-07 02:24:00,6.7,2.9,30.24,WNW,302,0.0,1.0,84,0.00,,SKC,0.00,0.00,VWS V14.01,2013-01-07 09:24:00,
2013-01-07 02:30:00,6.5,2.7,30.24,WNW,302,0.0,1.0,84,0.00,,SKC,0.00,0.00,VWS V14.01,2013-01-07 09:30:00,
2013-01-07 02:36:00,6.3,2.5,30.24,WNW,302,0.0,0.0,84,0.00,,SKC,0.00,0.00,VWS V14.01,2013-01-07 09:36:00,
2013-01-07 02:42:00,6.2,2.4,30.24,WNW,302,0.0,1.0,84,0.00,,SKC,0.00,0.00,VWS V14.01,2013-01-07 09:42:00,
2013-01-07 02:48:00,6.2,2.7,30.24,WNW,302,0.0,1.0,85,0.00,,SKC,0.00,0.00,VWS V14.01,2013-01-07 09:48:00,
2013-01-07 02:54:00,6.2,2.7,30.24,WNW,302,0.0,1.0,85,0.00,,SKC,0.00,0.00,VWS V14.01,2013-01-07 09:54:00,
2013-01-07 03:00:00,6.2,2.7,30.23,WNW,302,0.0,1.0,85,0.00,,SKC,0.00,0.00,VWS V14.01,2013-01-07 10:00:00,
2013-01-07 03:06:00,6.2,2.7,30.25,WNW,302,0.0,0.0,85,0.00,,SKC,0.00,0.00,VWS V14.01,2013-01-07 10:06:00,
2013-01-07 03:12:00,6.3,3.0,30.24,WNW,302,0.0,1.0,86,0.00,,SKC,0.00,0.00,VWS V14.01,2013-01-07 10:12:00,
2013-01-07 03:18:00,6.6,3.3,30.23,WNW,302,0.0,1.0,86,0.00,,SKC,0.00,0.00,VWS V14.01,2013-01-07 10:18:00,
2013-01-07 03:24:00,6.7,3.4,30.23,WNW,302,0.0,1.0,86,0.00,,SKC,0.00,0.00,VWS V14.01,2013-01-07 10:24:00,
2013-01-07 03:30:00,6.8,3.5,30.22,WNW,302,0.0,1.0,86,0.00,,SKC,0.00,0.00,VWS V14.01,2013-01-07 10:30:00,
2013-01-07 03:35:00,7.0,3.7,30.22,WNW,302,0.0,0.0,86,0.00,,SKC,0.00,0.00,VWS V14.01,2013-01-07 10:35:00,
2013-01-07 03:41:00,7.1,3.8,30.22,WNW,302,0.0,0.0,86,0.00,,SKC,0.00,0.00,VWS V14.01,2013-01-07 10:41:00,
2013-01-07 03:47:00,7.2,4.2,30.22,WNW,302,0.0,0.0,87,0.00,,SKC,0.00,0.00,VWS V14.01,2013-01-07 10:47:00,
2013-01-07 03:53:00,7.2,4.2,30.22,WNW,302,0.0,0.0,87,0.00,,SKC,0.00,0.00,VWS V14.01,2013-01-07 10:53:00,
2013-01-07 03:59:00,7.1,3.8,30.22,WNW,302,0.0,0.0,86,0.00,,SKC,0.00,0.00,VWS V14.01,2013-01-07 10:59:00,
2013-01-07 04:00:00,7.1,3.8,30.22,WNW,302,0.0,0.0,86,0.00,,SKC,0.00,0.00,VWS V14.01,2013-01-07 11:00:00,
2013-01-07 04:05:00,7.0,3.7,30.24,WNW,302,0.0,0.0,86,0.00,,SKC,0.00,0.00,VWS V14.01,2013-01-07 11:05:00,
2013-01-07 04:11:00,7.1,3.8,30.24,WNW,302,0.0,0.0,86,0.00,,SKC,0.00,0.00,VWS V14.01,2013-01-07 11:11:00,
2013-01-07 04:18:00,7.1,3.8,30.24,WNW,302,0.0,0.0,86,0.00,,SKC,0.00,0.00,VWS V14.01,2013-01-07 11:18:00,
2013-01-07 04:24:00,7.0,3.7,30.24,WNW,302,0.0,0.0,86,0.00,,SKC,0.00,0.00,VWS V14.01,2013-01-07 11:24:00,
2013-01-07 04:30:00,6.8,3.5,30.24,WNW,302,0.0,0.0,86,0.00,,SKC,0.00,0.00,VWS V14.01,2013-01-07 11:30:00,
2013-01-07 04:36:00,6.7,3.4,30.24,WNW,302,0.0,0.0,86,0.00,,SKC,0.00,0.00,VWS V14.01,2013-01-07 11:36:00,
2013-01-07 04:42:00,6.4,2.9,30.26,WNW,302,0.0,1.0,85,0.00,,SKC,0.00,0.00,VWS V14.01,2013-01-07 11:42:00,
2013-01-07 04:48:00,6.3,2.8,30.26,WNW,302,0.0,1.0,85,0.00,,SKC,0.00,0.00,VWS V14.01,2013-01-07 11:48:00,
2013-01-07 04:54:00,6.2,2.7,30.26,WNW,302,0.0,1.0,85,0.00,,SKC,0.00,0.00,VWS V14.01,2013-01-07 11:54:00,
2013-01-07 05:00:00,6.1,2.6,30.26,WNW,302,0.0,1.0,85,0.00,,SKC,0.00,0.00,VWS V14.01,2013-01-07 12:00:00,
2013-01-07 05:06:00,5.9,2.4,30.30,WNW,302,0.0,0.0,85,0.00,,SKC,0.00,0.00,VWS V14.01,2013-01-07 12:06:00,
2013-01-07 05:12:00,5.7,2.2,30.30,WNW,302,0.0,1.0,85,0.00,,SKC,0.00,0.00,VWS V14.01,2013-01-07 12:12:00,
2013-01-07 05:18:00,5.6,2.1,30.30,WNW,302,0.0,1.0,85,0.00,,SKC,0.00,0.00,VWS V14.01,2013-01-07 12:18:00,
2013-01-07 05:25:00,5.6,2.1,30.30,WNW,302,0.0,1.0,85,0.00,,SKC,0.00,0.00,VWS V14.01,2013-01-07 12:25:00,
2013-01-07 05:30:00,5.4,1.9,30.30,WNW,302,0.0,1.0,85,0.00,,SKC,0.00,0.00,VWS V14.01,2013-01-07 12:30:00,
2013-01-07 05:35:00,5.3,1.8,30.30,WNW,302,0.0,0.0,85,0.00,,SKC,0.00,0.00,VWS V14.01,2013-01-07 12:35:00,
2013-01-07 05:41:00,5.1,1.6,30.30,WNW,302,0.0,1.0,85,0.00,,SKC,0.00,0.00,VWS V14.01,2013-01-07 12:41:00,
2013-01-07 05:47:00,5.0,1.5,30.31,WNW,302,0.0,1.0,85,0.00,,SKC,0.00,0.00,VWS V14.01,2013-01-07 12:47:00,
2013-01-07 05:53:00,4.8,1.3,30.31,WNW,302,0.0,1.0,85,0.00,,SKC,0.00,0.00,VWS V14.01,2013-01-07 12:53:00,
2013-01-07 05:59:00,4.7,1.2,30.31,WNW,302,0.0,1.0,85,0.00,,SKC,0.00,0.00,VWS V14.01,2013-01-07 12:59:00,
2013-01-07 06:00:00,4.6,1.1,30.31,WNW,302,0.0,1.0,85,0.00,,SKC,0.00,0.00,VWS V14.01,2013-01-07 13:00:00,
2013-01-07 06:05:00,4.6,1.1,30.34,WNW,302,0.0,0.0,85,0.00,,SKC,0.00,0.00,VWS V14.01,2013-01-07 13:05:00,
2013-01-07 06:11:00,4.5,1.0,30.34,WNW,302,0.0,0.0,85,0.00,,SKC,0.00,0.00,VWS V14.01,2013-01-07 13:11:00,
2013-01-07 06:18:00,4.4,0.9,30.34,WNW,302,0.0,0.0,85,0.00,,SKC,0.00,0.00,VWS V14.01,2013-01-07 13:18:00,
2013-01-07 06:24:00,4.3,0.8,30.34,WNW,302,0.0,0.0,85,0.00,,SKC,0.00,0.00,VWS V14.01,2013-01-07 13:24:00,
2013-01-07 06:30:00,4.2,0.7,30.34,WNW,302,0.0,0.0,85,0.00,,SKC,0.00,0.00,VWS V14.01,2013-01-07 13:30:00,
2013-01-07 06:36:00,4.3,0.8,30.34,WNW,302,0.0,0.0,85,0.00,,SKC,0.00,0.00,VWS V14.01,2013-01-07 13:36:00,
2013-01-07 06:42:00,4.4,0.9,30.34,WNW,302,0.0,0.0,85,0.00,,SKC,0.00,0.00,VWS V14.01,2013-01-07 13:42:00,
2013-01-07 06:48:00,4.4,0.9,30.34,WNW,302,0.0,0.0,85,0.00,,SKC,0.00,0.00,VWS V14.01,2013-01-07 13:48:00,
2013-01-07 06:54:00,4.5,1.0,30.34,WNW,302,0.0,0.0,85,0.00,,SKC,0.00,0.00,VWS V14.01,2013-01-07 13:54:00,
2013-01-07 07:00:00,4.5,1.0,30.34,WNW,302,0.0,0.0,85,0.00,,SKC,0.00,0.00,VWS V14.01,2013-01-07 14:00:00,
2013-01-07 07:06:00,4.8,1.5,30.34,South,183,0.0,4.0,86,0.00,,SKC,0.00,0.00,VWS V14.01,2013-01-07 14:06:00,
2013-01-07 07:12:00,5.0,1.7,30.35,South,183,0.0,4.0,86,0.00,,SKC,0.00,0.00,VWS V14.01,2013-01-07 14:12:00,
2013-01-07 07:18:00,5.0,1.7,30.35,South,183,0.0,4.0,86,0.00,,SKC,0.00,0.00,VWS V14.01,2013-01-07 14:18:00,
2013-01-07 07:24:00,5.0,1.7,30.36,South,183,0.0,4.0,86,0.00,,SKC,0.00,0.00,VWS V14.01,2013-01-07 14:24:00,
2013-01-07 07:30:00,5.0,1.7,30.36,South,183,0.0,4.0,86,0.00,,SKC,0.00,0.00,VWS V14.01,2013-01-07 14:30:00,
2013-01-07 07:36:00,5.0,1.5,30.36,South,183,0.0,0.0,85,0.00,,SKC,0.00,0.00,VWS V14.01,2013-01-07 14:36:00,
2013-01-07 07:42:00,4.9,1.4,30.37,South,183,1.0,1.0,85,0.00,,SKC,0.00,5.00,VWS V14.01,2013-01-07 14:42:00,
2013-01-07 07:48:00,4.8,1.3,30.37,South,183,0.0,1.0,85,0.00,,SKC,0.00,7.00,VWS V14.01,2013-01-07 14:48:00,
2013-01-07 07:54:00,4.7,1.2,30.36,South,183,0.0,1.0,85,0.00,,SKC,0.00,7.00,VWS V14.01,2013-01-07 14:54:00,
2013-01-07 08:00:00,4.6,1.1,30.37,South,183,0.0,1.0,85,0.00,,SKC,0.00,9.00,VWS V14.01,2013-01-07 15:00:00,
2013-01-07 08:05:00,4.5,1.0,30.38,South,183,0.0,0.0,85,0.00,,SKC,0.00,11.00,VWS V14.01,2013-01-07 15:05:00,
2013-01-07 08:11:00,4.4,0.6,30.40,South,183,0.0,1.0,84,0.00,,SKC,0.00,11.00,VWS V14.01,2013-01-07 15:11:00,
2013-01-07 08:17:00,4.1,0.3,30.40,South,183,1.0,1.0,84,0.00,,SKC,0.00,12.00,VWS V14.01,2013-01-07 15:17:00,
2013-01-07 08:23:00,3.9,0.2,30.40,South,183,0.0,1.0,84,0.00,,SKC,0.00,12.00,VWS V14.01,2013-01-07 15:23:00,
2013-01-07 08:29:00,3.9,0.2,30.40,South,183,0.0,1.0,84,0.00,,SKC,0.00,14.00,VWS V14.01,2013-01-07 15:29:00,
2013-01-07 08:30:00,3.8,0.1,30.40,South,183,0.0,1.0,84,0.00,,SKC,0.00,14.00,VWS V14.01,2013-01-07 15:30:00,
2013-01-07 08:35:00,3.8,0.1,30.40,South,183,0.0,0.0,84,0.00,,SKC,0.00,14.00,VWS V14.01,2013-01-07 15:35:00,
2013-01-07 08:41:00,3.8,0.3,30.40,South,183,0.0,1.0,85,0.00,,SKC,0.00,16.00,VWS V14.01,2013-01-07 15:41:00,
2013-01-07 08:47:00,3.7,0.2,30.40,South,183,0.0,1.0,85,0.00,,SKC,0.00,16.00,VWS V14.01,2013-01-07 15:47:00,
2013-01-07 08:53:00,3.8,0.3,30.39,South,183,0.0,1.0,85,0.00,,SKC,0.00,18.00,VWS V14.01,2013-01-07 15:53:00,
2013-01-07 09:00:00,3.9,0.4,30.39,South,183,0.0,1.0,85,0.00,,SKC,0.00,18.00,VWS V14.01,2013-01-07 16:00:00,
2013-01-07 09:06:00,4.0,0.5,30.41,South,183,0.0,0.0,85,0.00,,SKC,0.00,19.00,VWS V14.01,2013-01-07 16:06:00,
2013-01-07 09:12:00,4.1,0.6,30.41,South,183,0.0,0.0,85,0.00,,SKC,0.00,21.00,VWS V14.01,2013-01-07 16:12:00,
2013-01-07 09:18:00,4.1,0.6,30.41,South,183,0.0,0.0,85,0.00,,SKC,0.00,23.00,VWS V14.01,2013-01-07 16:18:00,
2013-01-07 09:24:00,4.2,0.7,30.41,South,183,0.0,0.0,85,0.00,,SKC,0.00,25.00,VWS V14.01,2013-01-07 16:24:00,
2013-01-07 09:30:00,4.5,1.2,30.41,South,183,0.0,1.0,86,0.00,,SKC,0.00,269.00,VWS V14.01,2013-01-07 16:30:00,
2013-01-07 09:36:00,7.7,5.1,30.39,South,183,0.0,0.0,89,0.00,,SKC,0.00,297.00,VWS V14.01,2013-01-07 16:36:00,
2013-01-07 09:42:00,11.1,8.8,30.35,South,183,0.0,2.0,90,0.00,,SKC,0.00,315.00,VWS V14.01,2013-01-07 16:42:00,
2013-01-07 09:48:00,12.8,10.4,30.33,South,183,0.0,2.0,90,0.00,,SKC,0.00,325.00,VWS V14.01,2013-01-07 16:48:00,
2013-01-07 09:54:00,14.5,11.9,30.31,SE,130,5.0,7.0,89,0.00,,SKC,0.00,341.00,VWS V14.01,2013-01-07 16:54:00,
2013-01-07 10:00:00,15.2,11.8,30.31,South,171,4.0,7.0,86,0.00,,SKC,0.00,272.00,VWS V14.01,2013-01-07 17:00:00,
2013-01-07 10:06:00,16.3,11.2,30.31,South,180,2.0,6.0,80,0.00,,SKC,0.00,271.00,VWS V14.01,2013-01-07 17:06:00,
2013-01-07 10:12:00,17.8,12.1,30.29,WSW,250,3.0,7.0,78,0.00,,SKC,0.00,236.00,VWS V14.01,2013-01-07 17:12:00,
2013-01-07 10:18:00,19.5,12.6,30.26,WSW,250,0.0,7.0,74,0.00,,SKC,0.00,374.00,VWS V14.01,2013-01-07 17:18:00,
2013-01-07 10:24:00,21.4,13.1,30.26,WSW,250,0.0,7.0,70,0.00,,SKC,0.00,367.00,VWS V14.01,2013-01-07 17:24:00,
2013-01-07 10:30:00,22.1,13.2,30.25,WSW,250,0.0,7.0,68,0.00,,SKC,0.00,388.00,VWS V14.01,2013-01-07 17:30:00,
2013-01-07 10:36:00,23.0,12.3,30.25,NE,50,6.0,9.0,63,0.00,,SKC,0.00,431.00,VWS V14.01,2013-01-07 17:36:00,
2013-01-07 10:42:00,22.2,11.9,30.25,NNE,26,2.0,9.0,64,0.00,,SKC,0.00,422.00,VWS V14.01,2013-01-07 17:42:00,
2013-01-07 10:48:00,22.2,12.2,30.24,NNE,13,2.0,9.0,65,0.00,,SKC,0.00,431.00,VWS V14.01,2013-01-07 17:48:00,
2013-01-07 10:54:00,22.3,11.6,30.24,ENE,57,0.0,9.0,63,0.00,,SKC,0.00,410.00,VWS V14.01,2013-01-07 17:54:00,
2013-01-07 11:00:00,22.4,11.4,30.24,ENE,60,2.0,9.0,62,0.00,,SKC,0.00,461.00,VWS V14.01,2013-01-07 18:00:00,
2013-01-07 11:05:00,23.0,12.3,30.24,NNE,25,3.0,5.0,63,0.00,,SKC,0.00,478.00,VWS V14.01,2013-01-07 18:05:00,
2013-01-07 11:11:00,23.5,11.7,30.23,NE,41,0.0,5.0,60,0.00,,SKC,0.00,492.00,VWS V14.01,2013-01-07 18:11:00,
2013-01-07 11:17:00,24.3,11.7,30.23,North,355,3.0,5.0,58,0.00,,SKC,0.00,501.00,VWS V14.01,2013-01-07 18:17:00,
2013-01-07 11:23:00,25.0,11.9,30.21,NNE,32,0.0,6.0,57,0.00,,SKC,0.00,504.00,VWS V14.01,2013-01-07 18:23:00,
2013-01-07 11:29:00,26.2,12.2,30.20,NNE,30,0.0,6.0,55,0.00,,SKC,0.00,496.00,VWS V14.01,2013-01-07 18:29:00,
2013-01-07 11:30:00,26.3,12.8,30.20,NNE,30,0.0,6.0,56,0.00,,SKC,0.00,504.00,VWS V14.01,2013-01-07 18:30:00,
2013-01-07 11:35:00,27.3,12.4,30.19,NNE,30,2.0,2.0,53,0.00,,SKC,0.00,512.00,VWS V14.01,2013-01-07 18:35:00,
2013-01-07 11:41:00,27.1,11.8,30.18,ENE,60,0.0,4.0,52,0.00,,SKC,0.00,519.00,VWS V14.01,2013-01-07 18:41:00,
2013-01-07 11:47:00,27.5,11.8,30.18,ENE,59,2.0,4.0,51,0.00,,SKC,0.00,510.00,VWS V14.01,2013-01-07 18:47:00,
2013-01-07 11:53:00,28.1,11.9,30.18,NE,55,0.0,4.0,50,0.00,,SKC,0.00,515.00,VWS V14.01,2013-01-07 18:53:00,
2013-01-07 11:59:00,28.6,11.9,30.15,NE,43,2.0,4.0,49,0.00,,SKC,0.00,520.00,VWS V14.01,2013-01-07 18:59:00,
2013-01-07 12:00:00,28.6,11.9,30.15,NE,42,0.0,4.0,49,0.00,,SKC,0.00,520.00,VWS V14.01,2013-01-07 19:00:00,
2013-01-07 12:05:00,28.9,12.1,30.17,NE,44,0.0,4.0,49,0.00,,SKC,0.00,529.00,VWS V14.01,2013-01-07 19:05:00,
2013-01-07 12:11:00,29.6,12.3,30.15,NE,43,0.0,4.0,48,0.00,,SKC,0.00,468.00,VWS V14.01,2013-01-07 19:11:00,
2013-01-07 12:18:00,30.6,13.7,30.14,NNE,32,2.0,5.0,49,0.00,,SKC,0.00,548.00,VWS V14.01,2013-01-07 19:18:00,
2013-01-07 12:24:00,31.2,13.3,30.13,NNE,21,3.0,6.0,47,0.00,,SKC,0.00,540.00,VWS V14.01,2013-01-07 19:24:00,
2013-01-07 12:30:00,31.5,13.1,30.13,NE,39,2.0,6.0,46,0.00,,SKC,0.00,541.00,VWS V14.01,2013-01-07 19:30:00,
2013-01-07 12:36:00,31.4,13.0,30.12,ENE,59,2.0,4.0,46,0.00,,SKC,0.00,534.00,VWS V14.01,2013-01-07 19:36:00,
2013-01-07 12:42:00,31.8,12.4,30.10,ENE,59,0.0,4.0,44,0.00,,SKC,0.00,517.00,VWS V14.01,2013-01-07 19:42:00,
2013-01-07 12:48:00,33.3,12.2,30.09,ENE,59,0.0,4.0,41,0.00,,SKC,0.00,524.00,VWS V14.01,2013-01-07 19:48:00,
2013-01-07 12:54:00,34.4,12.6,30.07,ENE,59,1.0,4.0,40,0.00,,SKC,0.00,497.00,VWS V14.01,2013-01-07 19:54:00,
2013-01-07 13:00:00,35.1,12.6,30.07,ENE,59,2.0,4.0,39,0.00,,SKC,0.00,501.00,VWS V14.01,2013-01-07 20:00:00,
2013-01-07 13:06:00,35.2,12.1,30.08,ENE,60,2.0,4.0,38,0.00,,SKC,0.00,459.00,VWS V14.01,2013-01-07 20:06:00,
2013-01-07 13:12:00,35.6,12.5,30.06,ENE,60,0.0,4.0,38,0.00,,SKC,0.00,429.00,VWS V14.01,2013-01-07 20:12:00,
2013-01-07 13:18:00,36.8,13.6,30.06,ENE,60,1.0,4.0,38,0.00,,SKC,0.00,406.00,VWS V14.01,2013-01-07 20:18:00,
2013-01-07 13:23:00,36.6,12.8,30.06,NE,50,3.0,5.0,37,0.00,,SKC,0.00,403.00,VWS V14.01,2013-01-07 20:23:00,
2013-01-07 13:29:00,36.2,13.1,30.05,NE,34,3.0,5.0,38,0.00,,SKC,0.00,404.00,VWS V14.01,2013-01-07 20:29:00,
2013-01-07 13:30:00,36.3,13.7,30.05,NE,51,1.0,5.0,39,0.00,,SKC,0.00,408.00,VWS V14.01,2013-01-07 20:30:00,
2013-01-07 13:35:00,36.3,13.1,30.05,North,9,3.0,6.0,38,0.00,,SKC,0.00,403.00,VWS V14.01,2013-01-07 20:35:00,
2013-01-07 13:41:00,36.1,13.0,30.05,NE,40,7.0,11.0,38,0.00,,SKC,0.00,445.00,VWS V14.01,2013-01-07 20:41:00,
2013-01-07 13:47:00,34.8,13.5,30.07,North,11,7.0,11.0,41,0.00,,SKC,0.00,462.00,VWS V14.01,2013-01-07 20:47:00,
2013-01-07 13:53:00,34.4,13.1,30.07,NNE,32,6.0,11.0,41,0.00,,SKC,0.00,445.00,VWS V14.01,2013-01-07 20:53:00,
2013-01-07 13:59:00,34.4,13.1,30.07,NE,38,3.0,11.0,41,0.00,,SKC,0.00,431.00,VWS V14.01,2013-01-07 20:59:00,
2013-01-07 14:00:00,34.4,13.7,30.07,NE,38,3.0,11.0,42,0.00,,SKC,0.00,436.00,VWS V14.01,2013-01-07 21:00:00,
2013-01-07 14:05:00,34.4,13.1,30.08,NNE,24,3.0,10.0,41,0.00,,SKC,0.00,432.00,VWS V14.01,2013-01-07 21:05:00,
2013-01-07 14:11:00,34.9,13.0,30.09,NNE,24,6.0,10.0,40,0.00,,SKC,0.00,422.00,VWS V14.01,2013-01-07 21:11:00,
2013-01-07 14:17:00,35.1,13.2,30.09,North,360,10.0,10.0,40,0.00,,SKC,0.00,413.00,VWS V14.01,2013-01-07 21:17:00,
2013-01-07 14:23:00,34.8,11.8,30.09,NNW,340,9.0,11.0,38,0.00,,SKC,0.00,397.00,VWS V14.01,2013-01-07 21:23:00,
2013-01-07 14:29:00,34.8,12.9,30.09,North,5,5.0,11.0,40,0.00,,SKC,0.00,385.00,VWS V14.01,2013-01-07 21:29:00,
2013-01-07 14:30:00,34.8,12.4,30.09,NNW,338,1.0,11.0,39,0.00,,SKC,0.00,383.00,VWS V14.01,2013-01-07 21:30:00,
2013-01-07 14:35:00,35.3,12.8,30.09,NNE,26,4.0,8.0,39,0.00,,SKC,0.00,376.00,VWS V14.01,2013-01-07 21:35:00,
2013-01-07 14:41:00,35.3,12.8,30.09,NNE,30,0.0,8.0,39,0.00,,SKC,0.00,364.00,VWS V14.01,2013-01-07 21:41:00,
2013-01-07 14:47:00,35.5,12.4,30.07,NE,34,5.0,8.0,38,0.00,,SKC,0.00,352.00,VWS V14.01,2013-01-07 21:47:00,
2013-01-07 14:54:00,35.4,12.9,30.08,NE,36,0.0,8.0,39,0.00,,SKC,0.00,341.00,VWS V14.01,2013-01-07 21:54:00,
2013-01-07 15:00:00,35.7,12.6,30.07,NE,46,2.0,8.0,38,0.00,,SKC,0.00,325.00,VWS V14.01,2013-01-07 22:00:00,
2013-01-07 15:06:00,36.3,13.7,30.07,NE,45,0.0,2.0,39,0.00,,SKC,0.00,308.00,VWS V14.01,2013-01-07 22:06:00,
2013-01-07 15:12:00,36.4,14.4,30.07,NE,46,1.0,3.0,40,0.00,,SKC,0.00,287.00,VWS V14.01,2013-01-07 22:12:00,
2013-01-07 15:18:00,34.6,13.9,30.07,NW,317,1.0,4.0,42,0.00,,SKC,0.00,199.00,VWS V14.01,2013-01-07 22:18:00,
2013-01-07 15:24:00,34.1,14.5,30.08,NW,317,3.0,5.0,44,0.00,,SKC,0.00,33.00,VWS V14.01,2013-01-07 22:24:00,
2013-01-07 15:30:00,33.1,14.1,30.08,NW,317,3.0,5.0,45,0.00,,SKC,0.00,35.00,VWS V14.01,2013-01-07 22:30:00,
2013-01-07 15:36:00,32.4,14.4,30.09,NW,317,3.0,4.0,47,0.00,,SKC,0.00,37.00,VWS V14.01,2013-01-07 22:36:00,
2013-01-07 15:42:00,31.6,14.2,30.09,NW,317,1.0,4.0,48,0.00,,SKC,0.00,37.00,VWS V14.01,2013-01-07 22:42:00,
2013-01-07 15:48:00,31.1,14.2,30.09,NW,317,0.0,4.0,49,0.00,,SKC,0.00,37.00,VWS V14.01,2013-01-07 22:48:00,
2013-01-07 15:54:00,30.8,14.4,30.09,NW,317,0.0,4.0,50,0.00,,SKC,0.00,35.00,VWS V14.01,2013-01-07 22:54:00,
2013-01-07 16:00:00,30.5,14.5,30.09,NW,318,0.0,4.0,51,0.00,,SKC,0.00,33.00,VWS V14.01,2013-01-07 23:00:00,
2013-01-07 16:06:00,30.0,14.5,30.11,NW,317,0.0,2.0,52,0.00,,SKC,0.00,32.00,VWS V14.01,2013-01-07 23:06:00,
2013-01-07 16:12:00,29.5,14.1,30.11,NW,317,0.0,2.0,52,0.00,,SKC,0.00,32.00,VWS V14.01,2013-01-07 23:12:00,
2013-01-07 16:18:00,29.2,14.2,30.13,NW,317,0.0,2.0,53,0.00,,SKC,0.00,30.00,VWS V14.01,2013-01-07 23:18:00,
2013-01-07 16:24:00,28.8,14.3,30.13,NW,317,0.0,2.0,54,0.00,,SKC,0.00,28.00,VWS V14.01,2013-01-07 23:24:00,
2013-01-07 16:30:00,28.5,14.4,30.13,NW,317,0.0,2.0,55,0.00,,SKC,0.00,25.00,VWS V14.01,2013-01-07 23:30:00,
2013-01-07 16:36:00,28.0,13.9,30.14,NW,317,3.0,3.0,55,0.00,,SKC,0.00,21.00,VWS V14.01,2013-01-07 23:36:00,
2013-01-07 16:42:00,27.5,13.9,30.14,NW,317,1.0,3.0,56,0.00,,SKC,0.00,18.00,VWS V14.01,2013-01-07 23:42:00,
2013-01-07 16:48:00,27.2,14.0,30.15,NW,317,0.0,3.0,57,0.00,,SKC,0.00,12.00,VWS V14.01,2013-01-07 23:48:00,
2013-01-07 16:55:00,26.9,14.1,30.15,NW,317,2.0,3.0,58,0.00,,SKC,0.00,9.00,VWS V14.01,2013-01-07 23:55:00,
2013-01-07 17:00:00,26.5,14.1,30.15,NW,317,0.0,3.0,59,0.00,,SKC,0.00,5.00,VWS V14.01,2013-01-08 00:00:00,
2013-01-07 17:05:00,26.2,13.8,30.17,NW,317,0.0,1.0,59,0.00,,SKC,0.00,0.00,VWS V14.01,2013-01-08 00:05:00,
2013-01-07 17:11:00,25.7,13.4,30.17,NW,317,0.0,2.0,59,0.00,,SKC,0.00,0.00,VWS V14.01,2013-01-08 00:11:00,
2013-01-07 17:17:00,25.2,12.9,30.17,NW,317,0.0,2.0,59,0.00,,SKC,0.00,0.00,VWS V14.01,2013-01-08 00:17:00,
2013-01-07 17:23:00,24.8,12.9,30.17,NW,317,0.0,2.0,60,0.00,,SKC,0.00,0.00,VWS V14.01,2013-01-08 00:23:00,
2013-01-07 17:29:00,24.2,11.9,30.19,NW,317,0.0,3.0,59,0.00,,SKC,0.00,0.00,VWS V14.01,2013-01-08 00:29:00,
2013-01-07 17:30:00,24.1,11.9,30.19,NW,317,0.0,3.0,59,0.00,,SKC,0.00,0.00,VWS V14.01,2013-01-08 00:30:00,
2013-01-07 17:35:00,23.8,11.6,30.19,NW,317,0.0,0.0,59,0.00,,SKC,0.00,0.00,VWS V14.01,2013-01-08 00:35:00,
2013-01-07 17:41:00,23.4,11.9,30.19,NW,317,0.0,1.0,61,0.00,,SKC,0.00,0.00,VWS V14.01,2013-01-08 00:41:00,
2013-01-07 17:48:00,23.0,11.9,30.19,NW,317,0.0,1.0,62,0.00,,SKC,0.00,0.00,VWS V14.01,2013-01-08 00:48:00,
2013-01-07 17:54:00,22.6,11.6,30.19,NW,317,0.0,1.0,62,0.00,,SKC,0.00,0.00,VWS V14.01,2013-01-08 00:54:00,
2013-01-07 18:00:00,22.3,12.0,30.21,NW,317,0.0,1.0,64,0.00,,SKC,0.00,0.00,VWS V14.01,2013-01-08 01:00:00,
2013-01-07 18:06:00,22.0,12.1,30.20,NW,318,0.0,2.0,65,0.00,,SKC,0.00,0.00,VWS V14.01,2013-01-08 01:06:00,
2013-01-07 18:12:00,21.7,11.4,30.20,NW,317,0.0,2.0,64,0.00,,SKC,0.00,0.00,VWS V14.01,2013-01-08 01:12:00,
2013-01-07 18:18:00,21.2,11.3,30.20,NW,317,2.0,3.0,65,0.00,,SKC,0.00,0.00,VWS V14.01,2013-01-08 01:18:00,
2013-01-07 18:24:00,20.8,11.6,30.20,NW,317,0.0,3.0,67,0.00,,SKC,0.00,0.00,VWS V14.01,2013-01-08 01:24:00,
2013-01-07 18:30:00,20.4,11.2,30.22,NW,316,0.0,3.0,67,0.00,,SKC,0.00,0.00,VWS V14.01,2013-01-08 01:30:00,
2013-01-07 18:36:00,20.2,11.4,30.21,NW,316,0.0,2.0,68,0.00,,SKC,0.00,0.00,VWS V14.01,2013-01-08 01:36:00,
2013-01-07 18:42:00,20.1,11.6,30.21,NW,316,0.0,2.0,69,0.00,,SKC,0.00,0.00,VWS V14.01,2013-01-08 01:42:00,
2013-01-07 18:48:00,20.0,11.5,30.22,NW,316,0.0,2.0,69,0.00,,SKC,0.00,0.00,VWS V14.01,2013-01-08 01:48:00,
2013-01-07 18:54:00,19.7,10.9,30.22,NW,316,0.0,2.0,68,0.00,,SKC,0.00,0.00,VWS V14.01,2013-01-08 01:54:00,
2013-01-07 19:00:00,19.6,10.8,30.23,NW,315,0.0,2.0,68,0.00,,SKC,0.00,0.00,VWS V14.01,2013-01-08 02:00:00,
2013-01-07 19:06:00,19.1,10.3,30.23,NW,316,0.0,1.0,68,0.00,,SKC,0.00,0.00,VWS V14.01,2013-01-08 02:06:00,
2013-01-07 19:12:00,18.8,10.6,30.23,NW,316,0.0,1.0,70,0.00,,SKC,0.00,0.00,VWS V14.01,2013-01-08 02:12:00,
2013-01-07 19:18:00,18.5,12.5,30.23,NW,315,0.0,1.0,77,0.00,,SKC,0.00,0.00,VWS V14.01,2013-01-08 02:18:00,
2013-01-07 19:24:00,18.1,10.3,30.24,NW,316,0.0,1.0,71,0.00,,SKC,0.00,0.00,VWS V14.01,2013-01-08 02:24:00,
2013-01-07 19:30:00,17.7,9.9,30.24,NW,316,1.0,1.0,71,0.00,,SKC,0.00,0.00,VWS V14.01,2013-01-08 02:30:00,
2013-01-07 19:36:00,17.2,9.4,30.24,NW,316,0.0,2.0,71,0.00,,SKC,0.00,0.00,VWS V14.01,2013-01-08 02:36:00,
2013-01-07 19:42:00,16.7,9.3,30.25,NW,316,1.0,2.0,72,0.00,,SKC,0.00,0.00,VWS V14.01,2013-01-08 02:42:00,
2013-01-07 19:49:00,16.3,9.2,30.26,NW,316,0.0,3.0,73,0.00,,SKC,0.00,0.00,VWS V14.01,2013-01-08 02:49:00,
2013-01-07 19:55:00,15.9,8.8,30.26,NW,315,0.0,3.0,73,0.00,,SKC,0.00,0.00,VWS V14.01,2013-01-08 02:55:00,
2013-01-07 20:00:00,15.5,8.7,30.27,NW,315,0.0,3.0,74,0.00,,SKC,0.00,0.00,VWS V14.01,2013-01-08 03:00:00,
2013-01-07 20:06:00,15.2,8.4,30.29,NW,316,0.0,3.0,74,0.00,,SKC,0.00,0.00,VWS V14.01,2013-01-08 03:06:00,
2013-01-07 20:12:00,15.0,8.5,30.29,NW,316,2.0,3.0,75,0.00,,SKC,0.00,0.00,VWS V14.01,2013-01-08 03:12:00,
2013-01-07 20:18:00,14.8,8.6,30.28,NW,316,2.0,3.0,76,0.00,,SKC,0.00,0.00,VWS V14.01,2013-01-08 03:18:00,
2013-01-07 20:24:00,14.9,9.0,30.28,NW,315,0.0,3.0,77,0.00,,SKC,0.00,0.00,VWS V14.01,2013-01-08 03:24:00,
2013-01-07 20:30:00,14.9,8.7,30.28,NW,315,0.0,3.0,76,0.00,,SKC,0.00,0.00,VWS V14.01,2013-01-08 03:30:00,
2013-01-07 20:36:00,14.6,8.7,30.28,NW,316,0.0,2.0,77,0.00,,SKC,0.00,0.00,VWS V14.01,2013-01-08 03:36:00,
2013-01-07 20:42:00,14.4,8.5,30.28,NW,315,0.0,2.0,77,0.00,,SKC,0.00,0.00,VWS V14.01,2013-01-08 03:42:00,
2013-01-07 20:48:00,14.1,7.9,30.29,NW,316,0.0,2.0,76,0.00,,SKC,0.00,0.00,VWS V14.01,2013-01-08 03:48:00,
2013-01-07 20:54:00,13.9,8.0,30.28,NW,316,0.0,2.0,77,0.00,,SKC,0.00,0.00,VWS V14.01,2013-01-08 03:54:00,
2013-01-07 21:00:00,13.7,8.1,30.28,NW,316,0.0,2.0,78,0.00,,SKC,0.00,0.00,VWS V14.01,2013-01-08 04:00:00,
2013-01-07 21:06:00,13.4,7.8,30.20,NW,316,0.0,3.0,78,0.00,,SKC,0.00,0.00,VWS V14.01,2013-01-08 04:06:00,
2013-01-07 21:12:00,13.3,8.0,30.21,NW,316,1.0,3.0,79,0.00,,SKC,0.00,0.00,VWS V14.01,2013-01-08 04:12:00,
2013-01-07 21:18:00,13.3,8.0,30.21,NW,316,0.0,3.0,79,0.00,,SKC,0.00,0.00,VWS V14.01,2013-01-08 04:18:00,
2013-01-07 21:24:00,13.2,7.9,30.22,NW,316,0.0,3.0,79,0.00,,SKC,0.00,0.00,VWS V14.01,2013-01-08 04:24:00,
2013-01-07 21:30:00,13.0,7.7,30.21,NW,316,0.0,3.0,79,0.00,,SKC,0.00,0.00,VWS V14.01,2013-01-08 04:30:00,
2013-01-07 21:35:00,12.8,7.5,30.22,NW,315,0.0,0.0,79,0.00,,SKC,0.00,0.00,VWS V14.01,2013-01-08 04:35:00,
2013-01-07 21:41:00,12.7,7.4,30.22,NW,316,0.0,1.0,79,0.00,,SKC,0.00,0.00,VWS V14.01,2013-01-08 04:41:00,
2013-01-07 21:47:00,12.8,7.8,30.21,NW,316,0.0,4.0,80,0.00,,SKC,0.00,0.00,VWS V14.01,2013-01-08 04:47:00,
2013-01-07 21:53:00,13.1,8.1,30.21,NW,316,0.0,4.0,80,0.00,,SKC,0.00,0.00,VWS V14.01,2013-01-08 04:53:00,
2013-01-07 21:59:00,13.4,8.4,30.20,SSW,210,0.0,5.0,80,0.00,,SKC,0.00,0.00,VWS V14.01,2013-01-08 04:59:00,
2013-01-07 22:00:00,13.5,8.5,30.20,SSW,210,0.0,5.0,80,0.00,,SKC,0.00,0.00,VWS V14.01,2013-01-08 05:00:00,
2013-01-07 22:04:00,13.5,8.2,30.15,SSW,212,2.0,2.0,79,0.00,,SKC,0.00,0.00,VWS V14.01,2013-01-08 05:04:00,
2013-01-07 22:06:00,13.5,8.2,30.15,NNW,335,3.0,4.0,79,0.00,,SKC,0.00,0.00,VWS V14.01,2013-01-08 05:06:00,
2013-01-07 22:07:00,13.3,7.7,30.16,NNW,342,1.0,4.0,78,0.00,,SKC,0.00,0.00,VWS V14.01,2013-01-08 05:07:00,
2013-01-07 22:09:00,13.2,7.6,30.17,NNW,344,0.0,4.0,78,0.00,,SKC,0.00,0.00,VWS V14.01,2013-01-08 05:09:00,
2013-01-07 22:15:00,13.1,7.5,30.17,NNW,344,0.0,4.0,78,0.00,,SKC,0.00,0.00,VWS V14.01,2013-01-08 05:15:00,
2013-01-07 22:21:00,13.0,7.7,30.17,NNW,343,0.0,4.0,79,0.00,,SKC,0.00,0.00,VWS V14.01,2013-01-08 05:21:00,
2013-01-07 22:27:00,12.9,7.6,30.17,NNW,344,0.0,4.0,79,0.00,,SKC,0.00,0.00,VWS V14.01,2013-01-08 05:27:00,
2013-01-07 22:30:00,13.0,7.7,30.17,NNW,343,0.0,4.0,79,0.00,,SKC,0.00,0.00,VWS V14.01,2013-01-08 05:30:00,
2013-01-07 22:34:00,13.0,7.7,30.17,NNW,342,0.0,0.0,79,0.00,,SKC,0.00,0.00,VWS V14.01,2013-01-08 05:34:00,
2013-01-07 22:40:00,12.9,7.6,30.17,NNW,344,0.0,0.0,79,0.00,,SKC,0.00,0.00,VWS V14.01,2013-01-08 05:40:00,
2013-01-07 22:46:00,12.7,7.4,30.17,NNW,344,0.0,0.0,79,0.00,,SKC,0.00,0.00,VWS V14.01,2013-01-08 05:46:00,
2013-01-07 22:52:00,12.6,7.1,30.18,NNW,344,0.0,0.0,78,0.00,,SKC,0.00,0.00,VWS V14.01,2013-01-08 05:52:00,
2013-01-07 22:58:00,12.4,7.1,30.19,NNW,344,0.0,0.0,79,0.00,,SKC,0.00,0.00,VWS V14.01,2013-01-08 05:58:00,
2013-01-07 23:00:00,12.3,6.8,30.19,NNW,344,0.0,0.0,78,0.00,,SKC,0.00,0.00,VWS V14.01,2013-01-08 06:00:00,
2013-01-07 23:04:00,12.2,6.9,30.15,NNW,344,0.0,0.0,79,0.00,,SKC,0.00,0.00,VWS V14.01,2013-01-08 06:04:00,
2013-01-07 23:10:00,11.9,6.4,30.15,NNW,344,0.0,1.0,78,0.00,,SKC,0.00,0.00,VWS V14.01,2013-01-08 06:10:00,
2013-01-07 23:16:00,11.6,6.1,30.14,NNW,344,0.0,1.0,78,0.00,,SKC,0.00,0.00,VWS V14.01,2013-01-08 06:16:00,
2013-01-07 23:22:00,11.2,6.0,30.15,NNW,343,0.0,1.0,79,0.00,,SKC,0.00,0.00,VWS V14.01,2013-01-08 06:22:00,
2013-01-07 23:28:00,11.1,6.2,30.15,NNW,344,0.0,1.0,80,0.00,,SKC,0.00,0.00,VWS V14.01,2013-01-08 06:28:00,
2013-01-07 23:30:00,11.0,6.1,30.15,NNW,343,1.0,2.0,80,0.00,,SKC,0.00,0.00,VWS V14.01,2013-01-08 06:30:00,
2013-01-07 23:34:00,11.0,6.3,30.15,NNW,342,0.0,1.0,81,0.00,,SKC,0.00,0.00,VWS V14.01,2013-01-08 06:34:00,
2013-01-07 23:40:00,11.1,6.4,30.15,NNW,343,0.0,1.0,81,0.00,,SKC,0.00,0.00,VWS V14.01,2013-01-08 06:40:00,
2013-01-07 23:46:00,11.2,6.8,30.14,NNW,342,0.0,2.0,82,0.00,,SKC,0.00,0.00,VWS V14.01,2013-01-08 06:46:00,
2013-01-07 23:52:00,11.4,7.0,30.14,NNW,340,2.0,2.0,82,0.00,,SKC,0.00,0.00,VWS V14.01,2013-01-08 06:52:00,
2013-01-07 23:58:00,12.2,8.3,30.13,South,191,6.0,8.0,84,0.00,,SKC,0.00,0.00,VWS V14.01,2013-01-08 06:58:00,